LiveATC.Net - Listen to live air traffic control over the Internet! Contact for advertising information

ICAO: MMPB  IATA: PBC   Airport: Hermanos Serdan International Airport
City: Puebla
Country: Mexico   Continent: North America
MMPB METAR Weather: MMPB 280541Z 32003KT 8SM FEW025 SCT100 SCT230 11/09 A3036 RMK 8/538 HZY
MMPB Flight Activity (FlightAware)
MMPB Tower
Feed Status: UP   Listeners: 2
Listen right in your browser - requires Flash (in browser, requires Flash)
Click here to listen with your own player (launches your MP3 player)
MMPB Tower Audio Archives
Puebla Tower118.200


Unauthorized use prohibited. See Terms of Service

Find LiveATC Audio Streams

Airport/ARTCC Code

(e.g., 124.400, 128.75)
Site-wide search

Browse LiveATC Feeds
LiveATC Coverage Map
Top 50 LiveATC Feeds
Bad Weather Areas

Offer a LiveATC Feed
Press Inquiries

LiveATC on iPhone
LiveATC on Android

Windows Phone
Windows 8/10

LiveATC Mobile
(Mobile browser)

ATC Audio Archives
Interesting Recordings

LiveATC Forums

Home Page
Make a Donation
LiveATC Bookstore

Terms of Use
Privacy Policy

ATC/Radar Sites
U.S. ARTCC Freqs
Canadian Air Freqs


FAA Airport Status
Nat'l Airspace Status
Arrival Demand Charts

Server Software By:

Please make a donation to help us keep growing!